KJVL Airport (Southern Wisconsin Rgnl) Information

FAA: JVL - ICAO: KJVL

KJVL Airport Location

State Wisconsin
County Rock
City Janesville
KJVL Airport is 3 miles southwest of Janesville, WI.
Latitude 42-37-12.9000N
Longitude 089-02-29.6000W
Elevation 807ft

KJVL Airport METARs

METAR KJVL 181345Z 16009KT 10SM BKN150 M04/M06 A2990
Altimeter 29.90"
Temperature -4.0°C (24.8°F)
Wind 160° at 9KT
Clouds broken at 15,000ft
Visibility 10.0mi
Time observed: 2022-01-18T13:45:00Z

KJVL Airport Details

Status Operational
Activation April 1946
Ownership Public
Usage Public
Chart CHICAGO
ATC on-site Yes
Beacon schedule sunset-sunrise
Beacon color clear green

KJVL Airport Contacts

Owner ROCK COUNTY
Owner address 51 SOUTH MAIN ST, JANESVILLE, WI 53545
Owner phone 608-757-5768
Manager N/A
Manager address N/A, N/A
Manager phone 715-229-4479

KJVL Airport (Southern Wisconsin Rgnl) Radio Frequencies

KJVL (Airport) Radio Frequencies

UNICOM 122.95
Common traffic advisory frequency (CTAF) 118.8